createdAt,value
2022-11-21T00:01:18.308Z,6.47
2022-11-21T00:03:46.701Z,6.41
2022-11-21T00:06:14.574Z,6.44
2022-11-21T00:08:42.218Z,6.42
2022-11-21T00:11:09.861Z,6.42
2022-11-21T00:13:37.854Z,6.39
2022-11-21T00:16:06.139Z,6.42
2022-11-21T00:18:36.255Z,6.47
2022-11-21T00:21:07.661Z,6.51
2022-11-21T00:23:36.321Z,6.60
2022-11-21T00:26:08.322Z,6.59
2022-11-21T00:28:36.427Z,6.62
2022-11-21T00:31:05.036Z,6.65
2022-11-21T00:33:32.801Z,6.66
2022-11-21T00:36:07.248Z,6.70
2022-11-21T00:38:34.825Z,6.78
2022-11-21T00:41:02.453Z,6.82
2022-11-21T00:43:30.148Z,6.85
2022-11-21T00:45:59.382Z,6.89
2022-11-21T00:48:26.975Z,6.93
2022-11-21T00:50:54.616Z,6.95
2022-11-21T00:53:23.728Z,6.98
2022-11-21T00:55:51.281Z,6.98
2022-11-21T00:58:18.943Z,6.93
2022-11-21T01:00:46.664Z,6.90
2022-11-21T01:03:14.329Z,6.88
2022-11-21T01:05:41.978Z,6.93
2022-11-21T01:08:09.572Z,6.89
2022-11-21T01:10:38.593Z,6.72
2022-11-21T01:13:06.248Z,6.74
2022-11-21T01:15:34.845Z,6.70
2022-11-21T01:18:02.492Z,6.65
2022-11-21T01:20:30.147Z,6.51
2022-11-21T01:22:57.761Z,6.40
2022-11-21T01:25:25.321Z,6.31
2022-11-21T01:27:54.256Z,6.29
2022-11-21T01:30:21.850Z,6.25
2022-11-21T01:32:50.346Z,6.26
2022-11-21T01:35:18.422Z,6.30
2022-11-21T01:37:47.872Z,6.31
2022-11-21T01:40:15.888Z,6.33
2022-11-21T01:43:02.825Z,6.36
2022-11-21T01:45:54.076Z,6.36
2022-11-21T01:48:27.061Z,6.41
2022-11-21T01:50:56.379Z,6.32
2022-11-21T01:53:24.482Z,6.33
2022-11-21T01:55:52.737Z,6.41
2022-11-21T01:58:22.593Z,6.47
2022-11-21T02:00:51.229Z,6.49
2022-11-21T02:03:25.786Z,6.48
2022-11-21T02:05:55.327Z,6.41
2022-11-21T02:08:26.711Z,6.49
2022-11-21T02:11:05.300Z,6.51
2022-11-21T02:13:34.348Z,6.44
2022-11-21T02:16:02.974Z,6.45
2022-11-21T02:18:30.688Z,6.46
2022-11-21T02:21:04.217Z,6.47
2022-11-21T02:23:41.206Z,6.50
2022-11-21T02:26:11.292Z,6.52
2022-11-21T02:28:38.898Z,6.52
2022-11-21T02:31:06.501Z,6.54
2022-11-21T02:33:34.127Z,6.54
2022-11-21T02:36:03.201Z,6.52
2022-11-21T02:38:34.526Z,6.53
2022-11-21T02:41:08.095Z,6.55
2022-11-21T02:43:43.478Z,6.53
2022-11-21T02:46:11.232Z,6.55
2022-11-21T02:48:39.140Z,6.56
2022-11-21T02:51:06.755Z,6.60
2022-11-21T02:53:34.528Z,6.64
2022-11-21T02:56:02.368Z,6.68
2022-11-21T02:58:30.308Z,6.72
2022-11-21T03:00:59.395Z,6.65
2022-11-21T03:03:27.134Z,6.65
2022-11-21T03:05:55.324Z,6.67
2022-11-21T03:08:22.895Z,6.69
2022-11-21T03:10:50.541Z,6.75
2022-11-21T03:13:18.134Z,6.82
2022-11-21T03:15:45.729Z,6.81
2022-11-21T03:18:14.685Z,6.79
2022-11-21T03:20:42.283Z,6.79
2022-11-21T03:23:10.009Z,6.80
2022-11-21T03:25:37.640Z,6.80
2022-11-21T03:28:05.565Z,6.79
2022-11-21T03:30:33.170Z,6.86
2022-11-21T03:33:00.810Z,6.82
2022-11-21T03:35:29.795Z,6.82
2022-11-21T03:37:57.398Z,6.87
2022-11-21T03:40:25.101Z,6.92
2022-11-21T03:42:52.756Z,6.91
2022-11-21T03:45:20.415Z,6.96
2022-11-21T03:47:48.056Z,6.92
2022-11-21T03:50:18.876Z,6.90
2022-11-21T03:52:48.027Z,6.94
2022-11-21T03:55:16.156Z,7.03
2022-11-21T03:57:43.850Z,7.01
2022-11-21T04:00:12.828Z,7.04
2022-11-21T04:02:40.579Z,7.11
2022-11-21T04:05:08.639Z,7.10
2022-11-21T04:07:36.411Z,7.09
2022-11-21T04:10:05.884Z,7.04
2022-11-21T04:12:33.426Z,7.07
2022-11-21T04:15:01.029Z,7.09
2022-11-21T04:17:28.599Z,7.01
2022-11-21T04:19:56.244Z,7.07
2022-11-21T04:22:23.892Z,7.14
2022-11-21T04:24:51.539Z,7.18
2022-11-21T04:27:20.475Z,7.16
2022-11-21T04:29:48.113Z,7.14
2022-11-21T04:32:15.756Z,7.14
2022-11-21T04:34:43.347Z,7.07
2022-11-21T04:37:11.863Z,7.15
2022-11-21T04:39:39.576Z,7.09
2022-11-21T04:42:07.226Z,7.11
2022-11-21T04:44:36.168Z,7.01
2022-11-21T04:47:05.515Z,7.03
2022-11-21T04:49:33.648Z,7.06
2022-11-21T04:52:01.291Z,7.00
2022-11-21T04:54:29.184Z,7.01
2022-11-21T04:56:57.221Z,6.92
2022-11-21T04:59:24.878Z,6.89
2022-11-21T05:01:53.785Z,6.87
2022-11-21T05:04:21.346Z,6.86
2022-11-21T05:06:48.933Z,6.75
2022-11-21T05:09:16.542Z,6.84
2022-11-21T05:12:01.820Z,6.78
2022-11-21T05:14:29.803Z,6.78
2022-11-21T05:16:58.942Z,6.80
2022-11-21T05:19:26.587Z,6.73
2022-11-21T05:21:54.173Z,6.62
2022-11-21T05:24:21.843Z,6.53
2022-11-21T05:26:49.522Z,6.47
2022-11-21T05:29:17.225Z,6.43
2022-11-21T05:31:45.017Z,6.43
2022-11-21T05:34:14.253Z,6.48
2022-11-21T05:36:42.018Z,6.46
2022-11-21T05:39:09.698Z,6.47
2022-11-21T05:41:37.294Z,6.52
2022-11-21T05:44:04.020Z,6.57
2022-11-21T05:46:31.717Z,6.68
2022-11-21T05:48:59.357Z,6.74
2022-11-21T05:51:28.401Z,6.75
2022-11-21T05:53:56.097Z,6.79
2022-11-21T05:56:23.736Z,6.82
2022-11-21T05:58:51.510Z,6.87
2022-11-21T06:01:40.066Z,6.81
2022-11-21T06:04:06.706Z,6.74
2022-11-21T06:06:35.733Z,6.67
2022-11-21T06:09:03.972Z,6.65
2022-11-21T06:11:31.748Z,6.58
2022-11-21T06:13:59.430Z,6.59
2022-11-21T06:16:27.127Z,6.54
2022-11-21T06:18:58.338Z,6.54
2022-11-21T06:21:29.168Z,6.48
2022-11-21T06:23:59.271Z,6.49
2022-11-21T06:26:28.346Z,6.45
2022-11-21T06:28:56.371Z,6.47
2022-11-21T06:31:25.712Z,6.54
2022-11-21T06:33:54.303Z,6.48
2022-11-21T06:36:22.076Z,6.41
2022-11-21T06:38:50.121Z,6.44
2022-11-21T06:41:20.662Z,6.45
2022-11-21T06:43:49.152Z,6.42
2022-11-21T06:46:17.234Z,6.39
2022-11-21T06:48:45.202Z,6.40
2022-11-21T06:51:17.325Z,6.42
2022-11-21T06:53:45.254Z,6.45
2022-11-21T06:56:13.183Z,6.56
2022-11-21T06:58:42.127Z,6.51
2022-11-21T07:01:11.393Z,6.54
2022-11-21T07:03:39.005Z,6.56
2022-11-21T07:06:07.411Z,6.59
2022-11-21T07:08:36.894Z,6.59
2022-11-21T07:11:24.616Z,6.54
2022-11-21T07:13:54.688Z,6.56
2022-11-21T07:16:22.360Z,6.64
2022-11-21T07:18:49.979Z,6.61
2022-11-21T07:21:17.596Z,6.59
2022-11-21T07:23:45.308Z,6.66
2022-11-21T07:26:13.014Z,6.67
2022-11-21T07:28:41.007Z,6.77
2022-11-21T07:31:13.871Z,6.76
2022-11-21T07:33:43.536Z,6.81
2022-11-21T07:36:11.665Z,6.83
2022-11-21T07:38:40.832Z,6.81
2022-11-21T07:41:08.827Z,6.90
2022-11-21T07:43:36.516Z,6.94
2022-11-21T07:46:04.533Z,6.87
2022-11-21T07:48:33.471Z,6.92
2022-11-21T07:51:04.609Z,6.93
2022-11-21T07:53:32.220Z,6.89
2022-11-21T07:56:00.710Z,6.90
2022-11-21T07:58:28.356Z,6.95
2022-11-21T08:00:56.004Z,6.92
2022-11-21T08:03:25.217Z,6.93
2022-11-21T08:05:54.286Z,7.05
2022-11-21T08:08:21.868Z,7.11
2022-11-21T08:10:51.289Z,7.17
2022-11-21T08:13:18.936Z,7.25
2022-11-21T08:15:46.635Z,7.27
2022-11-21T08:18:18.850Z,7.25
2022-11-21T08:20:46.457Z,7.37
2022-11-21T08:23:15.437Z,7.33
2022-11-21T08:25:43.755Z,7.35
2022-11-21T08:28:12.580Z,7.50
2022-11-21T08:30:41.136Z,7.49
2022-11-21T08:33:08.847Z,7.45
2022-11-21T08:35:37.575Z,7.47
2022-11-21T08:38:05.462Z,7.50
2022-11-21T08:40:35.316Z,7.64
2022-11-21T08:43:05.072Z,7.71
2022-11-21T08:45:33.479Z,7.66
2022-11-21T08:48:01.102Z,7.68
2022-11-21T08:50:28.894Z,7.62
2022-11-21T08:53:01.420Z,7.71
2022-11-21T08:55:29.164Z,7.63
2022-11-21T08:57:58.214Z,7.62
2022-11-21T09:00:25.993Z,7.66
2022-11-21T09:02:53.608Z,7.56
2022-11-21T09:05:21.200Z,7.58
2022-11-21T09:07:48.918Z,7.65
2022-11-21T09:10:16.785Z,7.73
2022-11-21T09:12:44.442Z,7.73
2022-11-21T09:15:31.343Z,7.60
2022-11-21T09:18:04.463Z,7.61
2022-11-21T09:20:33.972Z,7.63
2022-11-21T09:23:05.312Z,7.78
2022-11-21T09:25:34.097Z,7.56
2022-11-21T09:28:03.014Z,7.55
2022-11-21T09:30:32.043Z,7.41
2022-11-21T09:33:02.468Z,7.42
2022-11-21T09:35:30.347Z,7.55
2022-11-21T09:37:58.538Z,7.51
2022-11-21T09:40:26.831Z,7.55
2022-11-21T09:43:11.672Z,7.61
2022-11-21T09:45:47.357Z,7.45
2022-11-21T09:48:22.491Z,7.48
2022-11-21T09:50:54.976Z,7.65
2022-11-21T09:53:28.198Z,8.13
2022-11-21T09:55:59.747Z,8.71
2022-11-21T09:58:32.962Z,9.18
2022-11-21T10:01:02.196Z,9.40
2022-11-21T10:03:32.674Z,9.36
2022-11-21T10:06:05.105Z,9.41
2022-11-21T10:08:43.831Z,9.09
2022-11-21T10:11:22.514Z,9.26
2022-11-21T10:14:13.996Z,9.33
2022-11-21T10:16:50.792Z,9.33
2022-11-21T10:19:48.513Z,9.26
2022-11-21T10:22:49.115Z,9.28
2022-11-21T10:25:26.913Z,9.35
2022-11-21T10:27:59.410Z,9.44
2022-11-21T10:30:27.063Z,9.81
2022-11-21T10:32:59.615Z,9.87
2022-11-21T10:35:33.002Z,10.20
2022-11-21T10:38:01.187Z,10.90
2022-11-21T10:40:36.319Z,11.24
2022-11-21T10:43:23.697Z,11.01
2022-11-21T10:45:51.762Z,10.83
2022-11-21T10:48:20.868Z,11.43
2022-11-21T10:51:02.598Z,11.41
2022-11-21T10:53:49.028Z,11.48
2022-11-21T10:56:19.954Z,11.11
2022-11-21T10:58:49.507Z,11.40
2022-11-21T11:01:22.118Z,11.69
2022-11-21T11:04:26.804Z,11.84
2022-11-21T11:06:53.800Z,12.00
2022-11-21T11:09:29.902Z,12.57
2022-11-21T11:12:23.470Z,12.10
2022-11-21T11:14:53.162Z,12.14
2022-11-21T11:17:28.637Z,12.02
2022-11-21T11:20:07.363Z,12.33
2022-11-21T11:22:35.008Z,12.67
2022-11-21T11:25:05.848Z,13.24
2022-11-21T11:27:33.411Z,12.91
2022-11-21T11:30:15.614Z,13.24
2022-11-21T11:32:43.408Z,13.38
2022-11-21T11:35:23.378Z,14.17
2022-11-21T11:38:01.505Z,14.27
2022-11-21T11:40:33.603Z,14.11
2022-11-21T11:43:38.453Z,13.86
2022-11-21T11:46:48.013Z,13.75
2022-11-21T11:49:23.742Z,14.04
2022-11-21T11:51:57.824Z,13.92
2022-11-21T11:54:30.853Z,13.88
2022-11-21T11:56:59.700Z,13.47
2022-11-21T11:59:33.320Z,13.23
2022-11-21T12:02:11.443Z,13.58
2022-11-21T12:04:47.196Z,13.58
2022-11-21T12:10:14.732Z,13.45
2022-11-21T12:12:45.551Z,14.06
2022-11-21T12:15:35.519Z,14.33
2022-11-21T12:18:16.858Z,15.24
2022-11-21T12:20:55.326Z,14.76
2022-11-21T12:23:28.294Z,14.55
2022-11-21T12:26:09.849Z,14.29
2022-11-21T12:28:51.651Z,14.85
2022-11-21T12:31:27.960Z,14.06
2022-11-21T12:34:05.121Z,14.47
2022-11-21T12:36:41.292Z,15.00
2022-11-21T12:40:07.738Z,14.71
2022-11-21T12:42:50.874Z,15.15
2022-11-21T12:45:31.982Z,14.90
2022-11-21T12:48:43.105Z,15.02
2022-11-21T12:51:54.078Z,14.65
2022-11-21T12:54:47.671Z,14.93
2022-11-21T12:57:16.822Z,15.17
2022-11-21T12:59:54.904Z,15.33
2022-11-21T13:02:34.104Z,15.14
2022-11-21T13:05:05.141Z,14.30
2022-11-21T13:07:34.336Z,14.81
2022-11-21T13:10:04.955Z,15.45
2022-11-21T13:12:41.594Z,15.57
2022-11-21T13:15:26.449Z,15.62
2022-11-21T13:17:57.720Z,16.01
2022-11-21T13:20:31.683Z,16.23
2022-11-21T13:23:01.356Z,16.59
2022-11-21T13:25:54.627Z,16.30
2022-11-21T13:28:37.653Z,16.31
2022-11-21T13:31:31.338Z,16.28
2022-11-21T13:33:59.418Z,16.32
2022-11-21T13:36:39.276Z,15.90
2022-11-21T13:39:37.545Z,14.79
2022-11-21T13:42:33.530Z,14.43
2022-11-21T13:45:43.629Z,13.77
2022-11-21T13:48:57.900Z,13.55
2022-11-21T13:51:47.170Z,13.89
2022-11-21T13:54:41.491Z,13.86
2022-11-21T13:57:34.030Z,13.91
2022-11-21T14:00:20.340Z,13.09
2022-11-21T14:03:11.842Z,12.99
2022-11-21T14:06:04.691Z,13.19
2022-11-21T14:08:32.701Z,13.34
2022-11-21T14:11:19.464Z,13.15
2022-11-21T14:13:50.312Z,13.06
2022-11-21T14:16:27.964Z,13.02
2022-11-21T14:18:56.932Z,12.64
2022-11-21T14:21:27.880Z,12.64
2022-11-21T14:23:57.605Z,12.61
2022-11-21T14:26:26.268Z,12.62
2022-11-21T14:29:18.862Z,12.49
2022-11-21T14:31:47.711Z,12.53
2022-11-21T14:34:25.060Z,12.44
2022-11-21T14:36:53.074Z,12.25
2022-11-21T14:39:43.554Z,12.17
2022-11-21T14:42:14.987Z,12.06
2022-11-21T14:44:44.506Z,11.97
2022-11-21T14:47:24.713Z,11.88
2022-11-21T14:49:54.890Z,11.80
2022-11-21T14:52:27.053Z,11.55
2022-11-21T14:57:45.809Z,11.47
2022-11-21T15:00:43.259Z,11.40
2022-11-21T15:03:05.605Z,11.28
2022-11-21T15:06:00.836Z,11.22
2022-11-21T15:11:12.445Z,10.98
2022-11-21T15:14:06.529Z,10.82
2022-11-21T15:16:30.575Z,10.66
2022-11-21T15:18:58.159Z,10.54
2022-11-21T15:21:25.921Z,10.41
2022-11-21T15:23:56.482Z,10.32
2022-11-21T15:26:30.319Z,10.19
2022-11-21T15:28:59.748Z,10.01
2022-11-21T15:31:27.884Z,9.92
2022-11-21T15:37:04.427Z,9.62
2022-11-21T15:39:33.227Z,9.54
2022-11-21T15:42:28.867Z,9.35
2022-11-21T15:45:01.369Z,9.31
2022-11-21T15:47:29.533Z,9.27
2022-11-21T15:49:58.680Z,9.21
2022-11-21T15:52:26.298Z,9.07
2022-11-21T15:54:53.959Z,8.95
2022-11-21T15:57:22.081Z,8.89
2022-11-21T15:59:50.103Z,8.79
2022-11-21T16:02:18.107Z,8.67
2022-11-21T16:04:45.739Z,8.61
2022-11-21T16:07:14.721Z,8.51
2022-11-21T16:09:44.738Z,8.41
2022-11-21T16:12:12.405Z,8.38
2022-11-21T16:14:40.023Z,8.28
2022-11-21T16:17:07.671Z,8.17
2022-11-21T16:19:35.338Z,8.14
2022-11-21T16:22:02.977Z,8.07
2022-11-21T16:24:31.981Z,7.97
2022-11-21T16:26:59.584Z,7.91
2022-11-21T16:29:28.101Z,7.90
2022-11-21T16:31:56.682Z,7.87
2022-11-21T16:34:24.383Z,7.86
2022-11-21T16:36:52.032Z,7.79
2022-11-21T16:39:19.607Z,7.80
2022-11-21T16:41:49.307Z,7.74
2022-11-21T16:44:17.989Z,7.64
2022-11-21T16:46:49.064Z,7.62
2022-11-21T16:49:16.726Z,7.53
2022-11-21T16:51:44.525Z,7.48
2022-11-21T16:54:12.247Z,7.43
2022-11-21T16:56:40.024Z,7.40
2022-11-21T16:59:09.176Z,7.36
2022-11-21T17:01:36.905Z,7.33
2022-11-21T17:04:04.615Z,7.28
2022-11-21T17:06:32.730Z,7.26
2022-11-21T17:09:01.200Z,7.23
2022-11-21T17:11:31.838Z,7.20
2022-11-21T17:14:03.319Z,7.16
2022-11-21T17:16:33.110Z,7.12
2022-11-21T17:19:02.116Z,7.06
2022-11-21T17:21:30.836Z,7.07
2022-11-21T17:23:59.124Z,7.05
2022-11-21T17:26:28.608Z,6.97
2022-11-21T17:28:58.059Z,6.96
2022-11-21T17:31:26.067Z,6.92
2022-11-21T17:33:57.007Z,6.89
2022-11-21T17:36:26.801Z,6.83
2022-11-21T17:38:55.341Z,6.76
2022-11-21T17:41:24.874Z,6.74
2022-11-21T17:43:55.796Z,6.74
2022-11-21T17:46:25.361Z,6.72
2022-11-21T17:48:58.069Z,6.72
2022-11-21T17:51:28.733Z,6.66
2022-11-21T17:53:56.453Z,6.66
2022-11-21T17:56:26.685Z,6.69
2022-11-21T17:58:54.289Z,6.75
2022-11-21T18:01:23.210Z,6.79
2022-11-21T18:03:57.647Z,6.87
2022-11-21T18:06:26.261Z,6.94
2022-11-21T18:08:53.931Z,6.98
2022-11-21T18:11:22.860Z,7.00
2022-11-21T18:13:51.100Z,6.98
2022-11-21T18:16:20.567Z,7.02
2022-11-21T18:18:49.728Z,7.05
2022-11-21T18:21:20.658Z,7.05
2022-11-21T18:23:48.658Z,7.06
2022-11-21T18:26:19.581Z,7.06
2022-11-21T18:28:47.507Z,7.06
2022-11-21T18:31:17.081Z,7.07
2022-11-21T18:33:47.011Z,7.09
2022-11-21T18:36:14.778Z,7.11
2022-11-21T18:38:53.475Z,7.12
2022-11-21T18:41:25.724Z,7.18
2022-11-21T18:43:55.110Z,7.19
2022-11-21T18:46:24.235Z,7.21
2022-11-21T18:49:04.297Z,7.22
2022-11-21T18:51:33.933Z,7.25
2022-11-21T18:54:06.542Z,7.27
2022-11-21T18:56:34.320Z,7.29
2022-11-21T18:59:03.279Z,7.32
2022-11-21T19:01:31.699Z,7.35
2022-11-21T19:04:00.078Z,7.38
2022-11-21T19:06:29.978Z,7.42
2022-11-21T19:08:59.265Z,7.43
2022-11-21T19:11:30.272Z,7.45
2022-11-21T19:13:59.197Z,7.44
2022-11-21T19:16:33.775Z,7.44
2022-11-21T19:21:48.971Z,7.48
2022-11-21T19:24:16.700Z,7.75
2022-11-21T19:26:45.703Z,7.70
2022-11-21T19:29:13.315Z,7.69
2022-11-21T19:31:45.146Z,7.64
2022-11-21T19:34:13.666Z,7.64
2022-11-21T19:36:41.697Z,7.67
2022-11-21T19:39:09.878Z,7.71
2022-11-21T19:41:38.206Z,7.72
2022-11-21T19:44:07.276Z,7.75
2022-11-21T19:46:36.964Z,7.79
2022-11-21T19:49:05.579Z,7.75
2022-11-21T19:51:34.867Z,7.73
2022-11-21T19:54:02.824Z,7.72
2022-11-21T19:56:30.594Z,7.76
2022-11-21T19:58:58.955Z,7.80
2022-11-21T20:01:29.992Z,7.80
2022-11-21T20:03:59.433Z,7.80
2022-11-21T20:06:29.156Z,7.80
2022-11-21T20:08:58.606Z,7.79
2022-11-21T20:11:28.078Z,7.80
2022-11-21T20:13:56.024Z,7.78
2022-11-21T20:16:25.562Z,7.79
2022-11-21T20:18:56.949Z,7.73
2022-11-21T20:21:24.950Z,7.70
2022-11-21T20:23:52.995Z,7.72
2022-11-21T20:26:22.139Z,7.74
2022-11-21T20:28:50.416Z,7.74
2022-11-21T20:31:20.424Z,7.77
2022-11-21T20:33:49.973Z,7.82
2022-11-21T20:36:20.767Z,7.82
2022-11-21T20:38:50.973Z,7.80
2022-11-21T20:41:18.585Z,7.74
2022-11-21T20:44:34.682Z,7.76
2022-11-21T20:46:35.167Z,7.74
2022-11-21T20:49:02.996Z,7.78
2022-11-21T20:52:56.031Z,7.77
2022-11-21T20:54:19.608Z,7.75
2022-11-21T20:56:47.182Z,7.76
2022-11-21T20:59:14.837Z,7.73
2022-11-21T21:01:43.410Z,7.71
2022-11-21T21:04:12.026Z,7.71
2022-11-21T21:06:41.013Z,7.68
2022-11-21T21:09:08.592Z,7.71
2022-11-21T21:11:51.354Z,7.68
2022-11-21T21:14:20.101Z,7.66
2022-11-21T21:16:47.723Z,7.64
2022-11-21T21:19:15.345Z,7.66
2022-11-21T21:21:44.314Z,7.64
2022-11-21T21:24:12.901Z,7.55
2022-11-21T21:26:43.593Z,7.51
2022-11-21T21:29:12.900Z,7.63
2022-11-21T21:31:44.056Z,7.64
2022-11-21T21:34:17.747Z,7.66
2022-11-21T21:36:46.862Z,7.67
2022-11-21T21:39:14.644Z,7.56
2022-11-21T21:41:44.487Z,7.52
2022-11-21T21:44:12.978Z,7.53
2022-11-21T21:46:40.665Z,7.49
2022-11-21T21:49:08.282Z,7.39
2022-11-21T21:51:36.970Z,7.40
2022-11-21T21:54:07.257Z,7.33
2022-11-21T21:56:34.960Z,7.29
2022-11-21T21:59:02.662Z,7.12
2022-11-21T22:01:32.036Z,7.02
2022-11-21T22:04:01.425Z,7.02
2022-11-21T22:06:29.725Z,7.07
2022-11-21T22:08:57.502Z,7.10
2022-11-21T22:11:27.942Z,7.07
2022-11-21T22:13:57.430Z,7.03
2022-11-21T22:16:25.670Z,7.06
2022-11-21T22:18:53.907Z,7.10
2022-11-21T22:21:23.717Z,7.13
2022-11-21T22:26:41.377Z,7.19
2022-11-21T22:29:09.174Z,7.23
2022-11-21T22:31:37.352Z,7.27
2022-11-21T22:34:05.012Z,7.33
2022-11-21T22:36:32.799Z,7.34
2022-11-21T22:39:00.422Z,7.33
2022-11-21T22:41:28.694Z,7.35
2022-11-21T22:43:59.357Z,7.36
2022-11-21T22:46:30.976Z,7.32
2022-11-21T22:48:59.357Z,7.24
2022-11-21T22:51:30.078Z,7.25
2022-11-21T22:53:58.348Z,7.28
2022-11-21T22:56:26.936Z,7.29
2022-11-21T22:58:54.683Z,7.28
2022-11-21T23:01:25.254Z,7.35
2022-11-21T23:03:55.421Z,7.34
2022-11-21T23:06:24.908Z,7.38
2022-11-21T23:08:53.434Z,7.36
2022-11-21T23:11:23.012Z,7.40
2022-11-21T23:13:51.244Z,7.43
2022-11-21T23:16:19.663Z,7.46
2022-11-21T23:18:49.516Z,7.48
2022-11-21T23:21:19.156Z,7.48
2022-11-21T23:23:46.780Z,7.46
2022-11-21T23:26:14.952Z,7.46
2022-11-21T23:28:42.562Z,7.47
2022-11-21T23:31:10.800Z,7.50
2022-11-21T23:33:38.359Z,7.52
2022-11-21T23:36:07.764Z,7.53
2022-11-21T23:38:35.433Z,7.53
2022-11-21T23:41:03.056Z,7.54
2022-11-21T23:43:30.614Z,7.54
2022-11-21T23:45:58.296Z,7.51
2022-11-21T23:48:25.957Z,7.51
2022-11-21T23:50:53.531Z,7.53
2022-11-21T23:53:23.260Z,7.53
2022-11-21T23:55:51.023Z,7.56
2022-11-21T23:58:18.603Z,7.55
